sensor_id;sensor_type;location;lat;lon;timestamp;P1;durP1;ratioP1;P2;durP2;ratioP2
15385;SDS011;7791;47.246;9.648;2023-06-04T00:00:55;8.43;;;5.70;;
15385;SDS011;7791;47.246;9.648;2023-06-04T00:03:30;8.83;;;5.87;;
15385;SDS011;7791;47.246;9.648;2023-06-04T00:06:18;9.20;;;5.70;;
15385;SDS011;7791;47.246;9.648;2023-06-04T00:08:55;6.57;;;5.27;;
15385;SDS011;7791;47.246;9.648;2023-06-04T00:11:25;6.67;;;5.33;;
15385;SDS011;7791;47.246;9.648;2023-06-04T00:13:59;7.50;;;5.50;;
15385;SDS011;7791;47.246;9.648;2023-06-04T00:16:27;6.67;;;5.03;;
15385;SDS011;7791;47.246;9.648;2023-06-04T00:19:02;7.70;;;4.87;;
15385;SDS011;7791;47.246;9.648;2023-06-04T00:21:32;6.87;;;5.23;;
15385;SDS011;7791;47.246;9.648;2023-06-04T00:24:15;9.77;;;5.30;;
15385;SDS011;7791;47.246;9.648;2023-06-04T00:26:51;6.43;;;5.03;;
15385;SDS011;7791;47.246;9.648;2023-06-04T00:29:37;9.33;;;5.30;;
15385;SDS011;7791;47.246;9.648;2023-06-04T00:32:18;7.00;;;5.17;;
15385;SDS011;7791;47.246;9.648;2023-06-04T00:34:52;7.20;;;5.07;;
15385;SDS011;7791;47.246;9.648;2023-06-04T00:37:21;9.13;;;5.63;;
15385;SDS011;7791;47.246;9.648;2023-06-04T00:39:50;8.03;;;5.00;;
15385;SDS011;7791;47.246;9.648;2023-06-04T00:42:31;7.00;;;4.47;;
15385;SDS011;7791;47.246;9.648;2023-06-04T00:45:10;6.37;;;5.00;;
15385;SDS011;7791;47.246;9.648;2023-06-04T00:47:41;6.77;;;5.23;;
15385;SDS011;7791;47.246;9.648;2023-06-04T00:50:07;8.03;;;5.00;;
15385;SDS011;7791;47.246;9.648;2023-06-04T00:52:47;6.70;;;5.23;;
15385;SDS011;7791;47.246;9.648;2023-06-04T00:55:26;6.97;;;4.93;;
15385;SDS011;7791;47.246;9.648;2023-06-04T00:58:04;9.50;;;5.50;;
15385;SDS011;7791;47.246;9.648;2023-06-04T01:00:47;11.30;;;5.67;;
15385;SDS011;7791;47.246;9.648;2023-06-04T01:03:35;7.43;;;5.47;;
15385;SDS011;7791;47.246;9.648;2023-06-04T01:06:09;9.43;;;5.53;;
15385;SDS011;7791;47.246;9.648;2023-06-04T01:08:43;7.73;;;5.60;;
15385;SDS011;7791;47.246;9.648;2023-06-04T01:11:14;7.10;;;4.80;;
15385;SDS011;7791;47.246;9.648;2023-06-04T01:13:42;7.43;;;5.00;;
15385;SDS011;7791;47.246;9.648;2023-06-04T01:16:13;7.93;;;5.33;;
15385;SDS011;7791;47.246;9.648;2023-06-04T01:18:53;7.20;;;4.97;;
15385;SDS011;7791;47.246;9.648;2023-06-04T01:21:38;6.67;;;5.00;;
15385;SDS011;7791;47.246;9.648;2023-06-04T01:24:18;7.23;;;5.73;;
15385;SDS011;7791;47.246;9.648;2023-06-04T01:26:53;5.87;;;4.77;;
15385;SDS011;7791;47.246;9.648;2023-06-04T01:29:22;5.87;;;4.87;;
15385;SDS011;7791;47.246;9.648;2023-06-04T01:31:58;6.27;;;4.50;;
15385;SDS011;7791;47.246;9.648;2023-06-04T01:34:44;8.10;;;4.90;;
15385;SDS011;7791;47.246;9.648;2023-06-04T01:40:09;6.80;;;5.00;;
15385;SDS011;7791;47.246;9.648;2023-06-04T01:42:38;6.57;;;5.20;;
15385;SDS011;7791;47.246;9.648;2023-06-04T01:45:09;6.53;;;5.33;;
15385;SDS011;7791;47.246;9.648;2023-06-04T01:47:42;6.77;;;4.90;;
15385;SDS011;7791;47.246;9.648;2023-06-04T01:50:14;8.63;;;4.90;;
15385;SDS011;7791;47.246;9.648;2023-06-04T01:52:59;6.43;;;5.03;;
15385;SDS011;7791;47.246;9.648;2023-06-04T01:58:05;7.90;;;4.90;;
15385;SDS011;7791;47.246;9.648;2023-06-04T02:00:41;6.77;;;5.10;;
15385;SDS011;7791;47.246;9.648;2023-06-04T02:03:15;6.33;;;4.97;;
15385;SDS011;7791;47.246;9.648;2023-06-04T02:05:47;7.17;;;4.73;;
15385;SDS011;7791;47.246;9.648;2023-06-04T02:11:15;6.77;;;5.20;;
15385;SDS011;7791;47.246;9.648;2023-06-04T02:13:49;10.00;;;5.67;;
15385;SDS011;7791;47.246;9.648;2023-06-04T02:16:25;7.20;;;5.63;;
15385;SDS011;7791;47.246;9.648;2023-06-04T02:19:00;6.17;;;5.20;;
15385;SDS011;7791;47.246;9.648;2023-06-04T02:21:35;6.93;;;5.27;;
15385;SDS011;7791;47.246;9.648;2023-06-04T02:24:08;6.40;;;4.90;;
15385;SDS011;7791;47.246;9.648;2023-06-04T02:26:51;6.60;;;5.50;;
15385;SDS011;7791;47.246;9.648;2023-06-04T02:29:23;9.77;;;5.80;;
15385;SDS011;7791;47.246;9.648;2023-06-04T02:32:03;7.73;;;5.13;;
15385;SDS011;7791;47.246;9.648;2023-06-04T02:34:36;6.60;;;5.10;;
15385;SDS011;7791;47.246;9.648;2023-06-04T02:40:07;8.63;;;5.07;;
15385;SDS011;7791;47.246;9.648;2023-06-04T02:42:41;5.57;;;4.87;;
15385;SDS011;7791;47.246;9.648;2023-06-04T02:45:07;6.57;;;5.20;;
15385;SDS011;7791;47.246;9.648;2023-06-04T02:47:38;7.57;;;5.40;;
15385;SDS011;7791;47.246;9.648;2023-06-04T02:50:08;6.20;;;5.00;;
15385;SDS011;7791;47.246;9.648;2023-06-04T02:52:34;8.57;;;5.97;;
15385;SDS011;7791;47.246;9.648;2023-06-04T02:55:10;6.80;;;5.27;;
15385;SDS011;7791;47.246;9.648;2023-06-04T02:57:49;8.23;;;5.80;;
15385;SDS011;7791;47.246;9.648;2023-06-04T03:00:28;9.43;;;5.87;;
15385;SDS011;7791;47.246;9.648;2023-06-04T03:03:06;7.00;;;5.53;;
15385;SDS011;7791;47.246;9.648;2023-06-04T03:05:39;8.37;;;5.93;;
15385;SDS011;7791;47.246;9.648;2023-06-04T03:08:07;8.93;;;5.87;;
15385;SDS011;7791;47.246;9.648;2023-06-04T03:10:40;8.87;;;6.13;;
15385;SDS011;7791;47.246;9.648;2023-06-04T03:13:29;7.40;;;5.80;;
15385;SDS011;7791;47.246;9.648;2023-06-04T03:16:03;7.23;;;5.80;;
15385;SDS011;7791;47.246;9.648;2023-06-04T03:18:37;8.70;;;5.87;;
15385;SDS011;7791;47.246;9.648;2023-06-04T03:21:11;8.63;;;5.80;;
15385;SDS011;7791;47.246;9.648;2023-06-04T03:23:49;8.67;;;6.50;;
15385;SDS011;7791;47.246;9.648;2023-06-04T03:26:32;9.13;;;6.10;;
15385;SDS011;7791;47.246;9.648;2023-06-04T03:29:02;9.53;;;6.13;;
15385;SDS011;7791;47.246;9.648;2023-06-04T03:31:32;8.87;;;6.40;;
15385;SDS011;7791;47.246;9.648;2023-06-04T03:34:07;9.37;;;6.17;;
15385;SDS011;7791;47.246;9.648;2023-06-04T03:36:44;7.20;;;5.73;;
15385;SDS011;7791;47.246;9.648;2023-06-04T03:39:18;7.80;;;5.77;;
15385;SDS011;7791;47.246;9.648;2023-06-04T03:41:49;8.07;;;6.13;;
15385;SDS011;7791;47.246;9.648;2023-06-04T03:44:23;10.10;;;6.30;;
15385;SDS011;7791;47.246;9.648;2023-06-04T03:46:56;7.67;;;5.60;;
15385;SDS011;7791;47.246;9.648;2023-06-04T03:49:32;7.77;;;5.93;;
15385;SDS011;7791;47.246;9.648;2023-06-04T03:52:10;11.07;;;6.27;;
15385;SDS011;7791;47.246;9.648;2023-06-04T03:54:48;10.07;;;6.17;;
15385;SDS011;7791;47.246;9.648;2023-06-04T04:00:10;8.70;;;6.27;;
15385;SDS011;7791;47.246;9.648;2023-06-04T04:03:02;8.13;;;5.93;;
15385;SDS011;7791;47.246;9.648;2023-06-04T04:05:37;7.67;;;5.97;;
15385;SDS011;7791;47.246;9.648;2023-06-04T04:08:11;10.37;;;5.83;;
15385;SDS011;7791;47.246;9.648;2023-06-04T04:10:57;9.67;;;6.30;;
15385;SDS011;7791;47.246;9.648;2023-06-04T04:13:24;13.03;;;5.93;;
15385;SDS011;7791;47.246;9.648;2023-06-04T04:15:53;8.50;;;6.30;;
15385;SDS011;7791;47.246;9.648;2023-06-04T04:18:24;9.57;;;5.93;;
15385;SDS011;7791;47.246;9.648;2023-06-04T04:21:06;9.07;;;6.20;;
15385;SDS011;7791;47.246;9.648;2023-06-04T04:23:57;10.50;;;6.57;;
15385;SDS011;7791;47.246;9.648;2023-06-04T04:26:35;7.60;;;6.03;;
15385;SDS011;7791;47.246;9.648;2023-06-04T04:31:55;7.47;;;5.53;;
15385;SDS011;7791;47.246;9.648;2023-06-04T04:34:30;8.73;;;5.80;;
15385;SDS011;7791;47.246;9.648;2023-06-04T04:37:16;7.60;;;5.27;;
15385;SDS011;7791;47.246;9.648;2023-06-04T04:39:54;7.30;;;5.57;;
15385;SDS011;7791;47.246;9.648;2023-06-04T04:42:26;7.07;;;5.37;;
15385;SDS011;7791;47.246;9.648;2023-06-04T04:45:02;6.30;;;5.07;;
15385;SDS011;7791;47.246;9.648;2023-06-04T04:50:46;8.27;;;5.53;;
15385;SDS011;7791;47.246;9.648;2023-06-04T04:53:19;7.63;;;5.43;;
15385;SDS011;7791;47.246;9.648;2023-06-04T04:55:56;7.80;;;5.30;;
15385;SDS011;7791;47.246;9.648;2023-06-04T04:58:30;7.67;;;5.43;;
15385;SDS011;7791;47.246;9.648;2023-06-04T05:01:05;8.20;;;5.60;;
15385;SDS011;7791;47.246;9.648;2023-06-04T05:03:39;5.93;;;5.17;;
15385;SDS011;7791;47.246;9.648;2023-06-04T05:06:28;6.93;;;5.00;;
15385;SDS011;7791;47.246;9.648;2023-06-04T05:09:01;7.10;;;4.90;;
15385;SDS011;7791;47.246;9.648;2023-06-04T05:11:39;5.60;;;4.43;;
15385;SDS011;7791;47.246;9.648;2023-06-04T05:14:19;5.40;;;4.33;;
15385;SDS011;7791;47.246;9.648;2023-06-04T05:16:53;8.23;;;4.03;;
15385;SDS011;7791;47.246;9.648;2023-06-04T05:22:22;6.57;;;4.20;;
15385;SDS011;7791;47.246;9.648;2023-06-04T05:24:55;8.10;;;4.10;;
15385;SDS011;7791;47.246;9.648;2023-06-04T05:27:44;8.63;;;4.60;;
15385;SDS011;7791;47.246;9.648;2023-06-04T05:30:23;4.40;;;3.80;;
15385;SDS011;7791;47.246;9.648;2023-06-04T05:33:05;6.77;;;4.10;;
15385;SDS011;7791;47.246;9.648;2023-06-04T05:35:38;5.67;;;3.87;;
15385;SDS011;7791;47.246;9.648;2023-06-04T05:38:06;5.78;;;4.18;;
15385;SDS011;7791;47.246;9.648;2023-06-04T05:40:42;4.85;;;3.63;;
15385;SDS011;7791;47.246;9.648;2023-06-04T05:43:27;4.85;;;3.80;;
15385;SDS011;7791;47.246;9.648;2023-06-04T05:46:03;4.10;;;3.50;;
15385;SDS011;7791;47.246;9.648;2023-06-04T05:48:35;7.07;;;3.92;;
15385;SDS011;7791;47.246;9.648;2023-06-04T05:51:22;6.20;;;4.00;;
15385;SDS011;7791;47.246;9.648;2023-06-04T05:53:59;6.68;;;3.85;;
15385;SDS011;7791;47.246;9.648;2023-06-04T05:56:37;4.97;;;3.47;;
15385;SDS011;7791;47.246;9.648;2023-06-04T05:59:10;5.30;;;3.80;;
15385;SDS011;7791;47.246;9.648;2023-06-04T06:01:48;4.35;;;3.38;;
15385;SDS011;7791;47.246;9.648;2023-06-04T06:04:34;4.13;;;3.53;;
15385;SDS011;7791;47.246;9.648;2023-06-04T06:09:50;5.32;;;3.92;;
15385;SDS011;7791;47.246;9.648;2023-06-04T06:12:46;4.85;;;3.45;;
15385;SDS011;7791;47.246;9.648;2023-06-04T06:15:18;8.45;;;3.58;;
15385;SDS011;7791;47.246;9.648;2023-06-04T06:17:59;7.65;;;3.83;;
15385;SDS011;7791;47.246;9.648;2023-06-04T06:20:28;4.22;;;3.80;;
15385;SDS011;7791;47.246;9.648;2023-06-04T06:23:05;4.03;;;3.47;;
15385;SDS011;7791;47.246;9.648;2023-06-04T06:25:41;4.10;;;3.70;;
15385;SDS011;7791;47.246;9.648;2023-06-04T06:28:16;4.82;;;4.07;;
15385;SDS011;7791;47.246;9.648;2023-06-04T06:30:57;5.10;;;3.60;;
15385;SDS011;7791;47.246;9.648;2023-06-04T06:33:42;5.78;;;3.88;;
15385;SDS011;7791;47.246;9.648;2023-06-04T06:36:09;5.72;;;3.90;;
15385;SDS011;7791;47.246;9.648;2023-06-04T06:38:49;5.00;;;3.70;;
15385;SDS011;7791;47.246;9.648;2023-06-04T06:41:21;5.15;;;3.63;;
15385;SDS011;7791;47.246;9.648;2023-06-04T06:43:51;4.80;;;3.65;;
15385;SDS011;7791;47.246;9.648;2023-06-04T06:46:21;5.13;;;3.70;;
15385;SDS011;7791;47.246;9.648;2023-06-04T06:49:03;4.68;;;4.03;;
15385;SDS011;7791;47.246;9.648;2023-06-04T06:51:46;4.68;;;3.90;;
15385;SDS011;7791;47.246;9.648;2023-06-04T06:54:39;4.38;;;3.63;;
15385;SDS011;7791;47.246;9.648;2023-06-04T06:57:27;6.57;;;4.07;;
15385;SDS011;7791;47.246;9.648;2023-06-04T07:00:09;5.30;;;3.88;;
15385;SDS011;7791;47.246;9.648;2023-06-04T07:02:48;4.35;;;3.90;;
15385;SDS011;7791;47.246;9.648;2023-06-04T07:05:18;5.55;;;4.30;;
15385;SDS011;7791;47.246;9.648;2023-06-04T07:08:02;5.55;;;4.63;;
15385;SDS011;7791;47.246;9.648;2023-06-04T07:10:30;5.20;;;3.90;;
15385;SDS011;7791;47.246;9.648;2023-06-04T07:13:08;6.60;;;4.45;;
15385;SDS011;7791;47.246;9.648;2023-06-04T07:15:39;5.65;;;4.35;;
15385;SDS011;7791;47.246;9.648;2023-06-04T07:18:13;8.25;;;4.43;;
15385;SDS011;7791;47.246;9.648;2023-06-04T07:20:50;6.35;;;4.47;;
15385;SDS011;7791;47.246;9.648;2023-06-04T07:23:20;4.82;;;3.80;;
15385;SDS011;7791;47.246;9.648;2023-06-04T07:25:54;6.35;;;3.65;;
15385;SDS011;7791;47.246;9.648;2023-06-04T07:28:31;7.22;;;4.53;;
15385;SDS011;7791;47.246;9.648;2023-06-04T07:31:14;5.40;;;3.72;;
15385;SDS011;7791;47.246;9.648;2023-06-04T07:33:53;5.07;;;4.25;;
15385;SDS011;7791;47.246;9.648;2023-06-04T07:36:23;5.70;;;4.45;;
15385;SDS011;7791;47.246;9.648;2023-06-04T07:38:57;6.82;;;4.70;;
15385;SDS011;7791;47.246;9.648;2023-06-04T07:41:30;6.07;;;4.72;;
15385;SDS011;7791;47.246;9.648;2023-06-04T07:46:44;6.72;;;4.20;;
15385;SDS011;7791;47.246;9.648;2023-06-04T07:49:20;5.82;;;4.50;;
15385;SDS011;7791;47.246;9.648;2023-06-04T07:51:53;6.30;;;4.80;;
15385;SDS011;7791;47.246;9.648;2023-06-04T07:54:25;6.50;;;4.68;;
15385;SDS011;7791;47.246;9.648;2023-06-04T07:56:54;7.70;;;4.50;;
15385;SDS011;7791;47.246;9.648;2023-06-04T07:59:47;6.32;;;5.00;;
15385;SDS011;7791;47.246;9.648;2023-06-04T08:02:35;6.63;;;4.63;;
15385;SDS011;7791;47.246;9.648;2023-06-04T08:05:08;7.97;;;4.75;;
15385;SDS011;7791;47.246;9.648;2023-06-04T08:07:39;6.18;;;5.05;;
15385;SDS011;7791;47.246;9.648;2023-06-04T08:10:10;6.45;;;5.00;;
15385;SDS011;7791;47.246;9.648;2023-06-04T08:12:49;6.80;;;4.93;;
15385;SDS011;7791;47.246;9.648;2023-06-04T08:15:22;6.72;;;5.07;;
15385;SDS011;7791;47.246;9.648;2023-06-04T08:18:03;6.00;;;4.90;;
15385;SDS011;7791;47.246;9.648;2023-06-04T08:20:41;7.90;;;5.30;;
15385;SDS011;7791;47.246;9.648;2023-06-04T08:26:09;8.13;;;5.55;;
15385;SDS011;7791;47.246;9.648;2023-06-04T08:28:42;6.93;;;5.45;;
15385;SDS011;7791;47.246;9.648;2023-06-04T08:31:19;6.15;;;4.85;;
15385;SDS011;7791;47.246;9.648;2023-06-04T08:33:57;7.32;;;5.50;;
15385;SDS011;7791;47.246;9.648;2023-06-04T08:36:35;7.53;;;4.63;;
15385;SDS011;7791;47.246;9.648;2023-06-04T08:39:18;6.63;;;5.00;;
15385;SDS011;7791;47.246;9.648;2023-06-04T08:41:52;8.60;;;5.15;;
15385;SDS011;7791;47.246;9.648;2023-06-04T08:44:35;6.03;;;5.00;;
15385;SDS011;7791;47.246;9.648;2023-06-04T08:47:07;6.35;;;5.30;;
15385;SDS011;7791;47.246;9.648;2023-06-04T08:49:40;8.55;;;6.40;;
15385;SDS011;7791;47.246;9.648;2023-06-04T08:54:59;7.97;;;6.30;;
15385;SDS011;7791;47.246;9.648;2023-06-04T08:57:28;9.30;;;6.43;;
15385;SDS011;7791;47.246;9.648;2023-06-04T09:00:09;8.23;;;5.55;;
15385;SDS011;7791;47.246;9.648;2023-06-04T09:02:54;8.15;;;5.65;;
15385;SDS011;7791;47.246;9.648;2023-06-04T09:05:28;8.30;;;5.90;;
15385;SDS011;7791;47.246;9.648;2023-06-04T09:08:00;9.68;;;5.97;;
15385;SDS011;7791;47.246;9.648;2023-06-04T09:10:35;8.75;;;5.60;;
15385;SDS011;7791;47.246;9.648;2023-06-04T09:13:04;9.65;;;5.50;;
15385;SDS011;7791;47.246;9.648;2023-06-04T09:15:49;8.85;;;5.28;;
15385;SDS011;7791;47.246;9.648;2023-06-04T09:18:31;7.75;;;5.65;;
15385;SDS011;7791;47.246;9.648;2023-06-04T09:21:08;8.48;;;5.88;;
15385;SDS011;7791;47.246;9.648;2023-06-04T09:26:51;7.10;;;5.50;;
15385;SDS011;7791;47.246;9.648;2023-06-04T09:29:34;7.75;;;5.25;;
15385;SDS011;7791;47.246;9.648;2023-06-04T09:32:11;8.40;;;5.40;;
15385;SDS011;7791;47.246;9.648;2023-06-04T09:37:57;7.72;;;5.75;;
15385;SDS011;7791;47.246;9.648;2023-06-04T09:43:20;10.40;;;5.70;;
15385;SDS011;7791;47.246;9.648;2023-06-04T09:45:50;9.38;;;5.45;;
15385;SDS011;7791;47.246;9.648;2023-06-04T09:48:38;9.50;;;6.18;;
15385;SDS011;7791;47.246;9.648;2023-06-04T09:51:14;7.85;;;5.68;;
15385;SDS011;7791;47.246;9.648;2023-06-04T09:54:04;8.73;;;5.75;;
15385;SDS011;7791;47.246;9.648;2023-06-04T09:56:40;7.88;;;6.00;;
15385;SDS011;7791;47.246;9.648;2023-06-04T09:59:15;7.20;;;5.63;;
15385;SDS011;7791;47.246;9.648;2023-06-04T10:01:48;8.90;;;5.60;;
15385;SDS011;7791;47.246;9.648;2023-06-04T10:04:21;12.57;;;6.43;;
15385;SDS011;7791;47.246;9.648;2023-06-04T10:06:59;6.90;;;5.97;;
15385;SDS011;7791;47.246;9.648;2023-06-04T10:09:39;6.80;;;5.43;;
15385;SDS011;7791;47.246;9.648;2023-06-04T10:12:16;7.85;;;6.10;;
15385;SDS011;7791;47.246;9.648;2023-06-04T10:14:51;8.32;;;5.60;;
15385;SDS011;7791;47.246;9.648;2023-06-04T10:17:35;6.35;;;5.10;;
15385;SDS011;7791;47.246;9.648;2023-06-04T10:20:02;8.23;;;5.65;;
15385;SDS011;7791;47.246;9.648;2023-06-04T10:22:33;7.72;;;6.30;;
15385;SDS011;7791;47.246;9.648;2023-06-04T10:24:59;9.65;;;6.07;;
15385;SDS011;7791;47.246;9.648;2023-06-04T10:27:35;9.40;;;5.78;;
15385;SDS011;7791;47.246;9.648;2023-06-04T10:30:04;7.07;;;6.13;;
15385;SDS011;7791;47.246;9.648;2023-06-04T10:32:41;10.40;;;6.47;;
15385;SDS011;7791;47.246;9.648;2023-06-04T10:35:13;8.38;;;5.68;;
15385;SDS011;7791;47.246;9.648;2023-06-04T10:37:50;7.50;;;5.30;;
15385;SDS011;7791;47.246;9.648;2023-06-04T10:40:32;8.88;;;5.70;;
15385;SDS011;7791;47.246;9.648;2023-06-04T10:43:07;8.38;;;6.15;;
15385;SDS011;7791;47.246;9.648;2023-06-04T10:45:46;10.02;;;6.03;;
15385;SDS011;7791;47.246;9.648;2023-06-04T10:48:21;10.40;;;6.25;;
15385;SDS011;7791;47.246;9.648;2023-06-04T10:50:59;8.38;;;5.35;;
15385;SDS011;7791;47.246;9.648;2023-06-04T10:53:35;9.10;;;5.60;;
15385;SDS011;7791;47.246;9.648;2023-06-04T10:56:09;9.82;;;6.53;;
15385;SDS011;7791;47.246;9.648;2023-06-04T10:58:42;12.43;;;5.97;;
15385;SDS011;7791;47.246;9.648;2023-06-04T11:01:29;9.25;;;5.93;;
15385;SDS011;7791;47.246;9.648;2023-06-04T11:04:00;10.18;;;6.05;;
15385;SDS011;7791;47.246;9.648;2023-06-04T11:07:16;8.82;;;6.18;;
15385;SDS011;7791;47.246;9.648;2023-06-04T11:10:05;9.10;;;6.28;;
15385;SDS011;7791;47.246;9.648;2023-06-04T11:12:47;9.68;;;5.95;;
15385;SDS011;7791;47.246;9.648;2023-06-04T11:15:36;10.93;;;6.15;;
15385;SDS011;7791;47.246;9.648;2023-06-04T11:18:12;9.48;;;6.20;;
15385;SDS011;7791;47.246;9.648;2023-06-04T11:20:50;9.45;;;6.05;;
15385;SDS011;7791;47.246;9.648;2023-06-04T11:26:19;7.93;;;6.13;;
15385;SDS011;7791;47.246;9.648;2023-06-04T11:28:52;12.90;;;6.40;;
15385;SDS011;7791;47.246;9.648;2023-06-04T11:31:40;9.10;;;6.35;;
15385;SDS011;7791;47.246;9.648;2023-06-04T11:34:23;8.93;;;6.43;;
15385;SDS011;7791;47.246;9.648;2023-06-04T11:37:06;9.68;;;5.90;;
15385;SDS011;7791;47.246;9.648;2023-06-04T11:39:38;8.00;;;5.60;;
15385;SDS011;7791;47.246;9.648;2023-06-04T11:42:11;12.38;;;6.22;;
15385;SDS011;7791;47.246;9.648;2023-06-04T11:44:47;11.55;;;5.78;;
15385;SDS011;7791;47.246;9.648;2023-06-04T11:47:13;10.93;;;5.82;;
15385;SDS011;7791;47.246;9.648;2023-06-04T11:49:46;9.00;;;5.68;;
15385;SDS011;7791;47.246;9.648;2023-06-04T11:52:22;9.00;;;5.70;;
15385;SDS011;7791;47.246;9.648;2023-06-04T11:55:02;7.72;;;5.63;;
15385;SDS011;7791;47.246;9.648;2023-06-04T11:57:37;9.05;;;5.78;;
15385;SDS011;7791;47.246;9.648;2023-06-04T12:00:22;8.20;;;5.63;;
15385;SDS011;7791;47.246;9.648;2023-06-04T12:02:55;10.75;;;5.15;;
15385;SDS011;7791;47.246;9.648;2023-06-04T12:05:32;7.50;;;5.00;;
15385;SDS011;7791;47.246;9.648;2023-06-04T12:08:07;9.27;;;5.63;;
15385;SDS011;7791;47.246;9.648;2023-06-04T12:10:45;8.98;;;5.55;;
15385;SDS011;7791;47.246;9.648;2023-06-04T12:13:11;6.15;;;4.90;;
15385;SDS011;7791;47.246;9.648;2023-06-04T12:15:52;7.15;;;4.97;;
15385;SDS011;7791;47.246;9.648;2023-06-04T12:18:25;7.10;;;4.93;;
15385;SDS011;7791;47.246;9.648;2023-06-04T12:23:51;8.43;;;5.05;;
15385;SDS011;7791;47.246;9.648;2023-06-04T12:26:42;7.07;;;4.80;;
15385;SDS011;7791;47.246;9.648;2023-06-04T12:29:31;9.05;;;5.47;;
15385;SDS011;7791;47.246;9.648;2023-06-04T12:32:04;9.60;;;4.95;;
15385;SDS011;7791;47.246;9.648;2023-06-04T12:34:40;7.38;;;4.82;;
15385;SDS011;7791;47.246;9.648;2023-06-04T12:37:16;6.38;;;4.43;;
15385;SDS011;7791;47.246;9.648;2023-06-04T12:45:18;9.95;;;5.03;;
15385;SDS011;7791;47.246;9.648;2023-06-04T12:47:52;6.25;;;5.45;;
15385;SDS011;7791;47.246;9.648;2023-06-04T12:50:33;7.38;;;5.28;;
15385;SDS011;7791;47.246;9.648;2023-06-04T12:53:05;6.47;;;5.10;;
15385;SDS011;7791;47.246;9.648;2023-06-04T12:55:42;8.07;;;5.32;;
15385;SDS011;7791;47.246;9.648;2023-06-04T12:58:21;7.53;;;5.38;;
15385;SDS011;7791;47.246;9.648;2023-06-04T13:00:50;5.97;;;4.68;;
15385;SDS011;7791;47.246;9.648;2023-06-04T13:03:21;6.75;;;4.95;;
15385;SDS011;7791;47.246;9.648;2023-06-04T13:06:00;6.88;;;4.53;;
15385;SDS011;7791;47.246;9.648;2023-06-04T13:08:31;7.15;;;4.38;;
15385;SDS011;7791;47.246;9.648;2023-06-04T13:11:09;6.63;;;4.32;;
15385;SDS011;7791;47.246;9.648;2023-06-04T13:13:47;4.68;;;3.85;;
15385;SDS011;7791;47.246;9.648;2023-06-04T13:16:16;10.57;;;4.45;;
15385;SDS011;7791;47.246;9.648;2023-06-04T13:18:42;6.78;;;3.97;;
15385;SDS011;7791;47.246;9.648;2023-06-04T13:21:18;10.70;;;3.90;;
15385;SDS011;7791;47.246;9.648;2023-06-04T13:23:44;5.57;;;3.53;;
15385;SDS011;7791;47.246;9.648;2023-06-04T13:26:21;6.53;;;3.50;;
15385;SDS011;7791;47.246;9.648;2023-06-04T13:29:09;6.63;;;3.37;;
15385;SDS011;7791;47.246;9.648;2023-06-04T13:31:41;5.23;;;3.43;;
15385;SDS011;7791;47.246;9.648;2023-06-04T13:34:22;8.20;;;3.40;;
15385;SDS011;7791;47.246;9.648;2023-06-04T13:37:04;5.73;;;3.53;;
15385;SDS011;7791;47.246;9.648;2023-06-04T13:39:42;6.07;;;2.97;;
15385;SDS011;7791;47.246;9.648;2023-06-04T13:42:19;4.53;;;3.37;;
15385;SDS011;7791;47.246;9.648;2023-06-04T13:45:03;4.43;;;3.00;;
15385;SDS011;7791;47.246;9.648;2023-06-04T13:47:31;7.70;;;3.20;;
15385;SDS011;7791;47.246;9.648;2023-06-04T13:49:59;5.50;;;2.83;;
15385;SDS011;7791;47.246;9.648;2023-06-04T13:52:38;6.27;;;3.00;;
15385;SDS011;7791;47.246;9.648;2023-06-04T13:55:16;5.63;;;3.33;;
15385;SDS011;7791;47.246;9.648;2023-06-04T13:57:44;4.00;;;3.03;;
15385;SDS011;7791;47.246;9.648;2023-06-04T14:00:26;6.57;;;3.57;;
15385;SDS011;7791;47.246;9.648;2023-06-04T14:03:03;6.20;;;3.33;;
15385;SDS011;7791;47.246;9.648;2023-06-04T14:05:42;5.20;;;3.30;;
15385;SDS011;7791;47.246;9.648;2023-06-04T14:08:20;8.13;;;3.43;;
15385;SDS011;7791;47.246;9.648;2023-06-04T14:11:10;4.30;;;3.10;;
15385;SDS011;7791;47.246;9.648;2023-06-04T14:13:43;4.87;;;3.20;;
15385;SDS011;7791;47.246;9.648;2023-06-04T14:16:13;4.13;;;2.87;;
15385;SDS011;7791;47.246;9.648;2023-06-04T14:18:53;3.90;;;2.72;;
15385;SDS011;7791;47.246;9.648;2023-06-04T14:21:33;3.60;;;3.00;;
15385;SDS011;7791;47.246;9.648;2023-06-04T14:24:10;4.43;;;3.25;;
15385;SDS011;7791;47.246;9.648;2023-06-04T14:26:43;5.25;;;2.85;;
15385;SDS011;7791;47.246;9.648;2023-06-04T14:32:04;3.88;;;2.47;;
15385;SDS011;7791;47.246;9.648;2023-06-04T14:34:46;5.30;;;2.63;;
15385;SDS011;7791;47.246;9.648;2023-06-04T14:37:22;4.00;;;2.80;;
15385;SDS011;7791;47.246;9.648;2023-06-04T14:39:55;4.47;;;2.70;;
15385;SDS011;7791;47.246;9.648;2023-06-04T14:42:31;3.60;;;2.55;;
15385;SDS011;7791;47.246;9.648;2023-06-04T14:45:05;3.30;;;2.70;;
15385;SDS011;7791;47.246;9.648;2023-06-04T14:47:34;3.58;;;2.47;;
15385;SDS011;7791;47.246;9.648;2023-06-04T14:50:05;3.65;;;2.33;;
15385;SDS011;7791;47.246;9.648;2023-06-04T14:52:36;3.92;;;2.30;;
15385;SDS011;7791;47.246;9.648;2023-06-04T14:55:12;3.63;;;2.70;;
15385;SDS011;7791;47.246;9.648;2023-06-04T15:00:29;3.67;;;2.60;;
15385;SDS011;7791;47.246;9.648;2023-06-04T15:03:20;5.75;;;2.83;;
15385;SDS011;7791;47.246;9.648;2023-06-04T15:05:56;6.38;;;2.80;;
15385;SDS011;7791;47.246;9.648;2023-06-04T15:08:30;4.00;;;2.67;;
15385;SDS011;7791;47.246;9.648;2023-06-04T15:11:05;4.57;;;2.60;;
15385;SDS011;7791;47.246;9.648;2023-06-04T15:13:36;4.10;;;2.77;;
15385;SDS011;7791;47.246;9.648;2023-06-04T15:16:09;3.77;;;2.73;;
15385;SDS011;7791;47.246;9.648;2023-06-04T15:18:51;5.30;;;3.00;;
15385;SDS011;7791;47.246;9.648;2023-06-04T15:21:22;3.67;;;2.93;;
15385;SDS011;7791;47.246;9.648;2023-06-04T15:23:55;3.10;;;2.80;;
15385;SDS011;7791;47.246;9.648;2023-06-04T15:26:34;4.13;;;3.10;;
15385;SDS011;7791;47.246;9.648;2023-06-04T15:29:10;4.67;;;3.30;;
15385;SDS011;7791;47.246;9.648;2023-06-04T15:31:44;4.47;;;3.20;;
15385;SDS011;7791;47.246;9.648;2023-06-04T15:34:33;4.90;;;2.83;;
15385;SDS011;7791;47.246;9.648;2023-06-04T15:37:09;4.97;;;2.80;;
15385;SDS011;7791;47.246;9.648;2023-06-04T15:39:41;3.73;;;3.33;;
15385;SDS011;7791;47.246;9.648;2023-06-04T15:42:18;6.33;;;3.47;;
15385;SDS011;7791;47.246;9.648;2023-06-04T15:45:00;4.20;;;2.93;;
15385;SDS011;7791;47.246;9.648;2023-06-04T15:47:28;4.17;;;3.10;;
15385;SDS011;7791;47.246;9.648;2023-06-04T15:50:01;3.73;;;2.53;;
15385;SDS011;7791;47.246;9.648;2023-06-04T15:52:29;5.60;;;3.47;;
15385;SDS011;7791;47.246;9.648;2023-06-04T15:55:02;4.93;;;2.73;;
15385;SDS011;7791;47.246;9.648;2023-06-04T15:57:31;4.07;;;2.63;;
15385;SDS011;7791;47.246;9.648;2023-06-04T16:00:11;4.13;;;2.73;;
15385;SDS011;7791;47.246;9.648;2023-06-04T16:02:47;4.60;;;2.70;;
15385;SDS011;7791;47.246;9.648;2023-06-04T16:05:17;4.13;;;3.23;;
15385;SDS011;7791;47.246;9.648;2023-06-04T16:07:50;4.20;;;3.20;;
15385;SDS011;7791;47.246;9.648;2023-06-04T16:10:25;3.43;;;2.73;;
15385;SDS011;7791;47.246;9.648;2023-06-04T16:13:16;5.17;;;3.20;;
15385;SDS011;7791;47.246;9.648;2023-06-04T16:15:58;3.80;;;2.90;;
15385;SDS011;7791;47.246;9.648;2023-06-04T16:18:34;3.67;;;2.60;;
15385;SDS011;7791;47.246;9.648;2023-06-04T16:21:14;4.83;;;2.80;;
15385;SDS011;7791;47.246;9.648;2023-06-04T16:23:48;3.37;;;2.83;;
15385;SDS011;7791;47.246;9.648;2023-06-04T16:26:25;3.97;;;3.20;;
15385;SDS011;7791;47.246;9.648;2023-06-04T16:29:00;3.60;;;2.50;;
15385;SDS011;7791;47.246;9.648;2023-06-04T16:32:09;3.83;;;2.77;;
15385;SDS011;7791;47.246;9.648;2023-06-04T16:34:42;4.57;;;3.40;;
15385;SDS011;7791;47.246;9.648;2023-06-04T16:37:15;5.67;;;3.00;;
15385;SDS011;7791;47.246;9.648;2023-06-04T16:39:43;4.23;;;3.00;;
15385;SDS011;7791;47.246;9.648;2023-06-04T16:42:22;4.37;;;2.63;;
15385;SDS011;7791;47.246;9.648;2023-06-04T16:44:58;4.10;;;3.07;;
15385;SDS011;7791;47.246;9.648;2023-06-04T16:47:41;4.33;;;2.63;;
15385;SDS011;7791;47.246;9.648;2023-06-04T16:50:32;3.93;;;3.00;;
15385;SDS011;7791;47.246;9.648;2023-06-04T16:53:10;4.43;;;3.03;;
15385;SDS011;7791;47.246;9.648;2023-06-04T16:55:42;4.87;;;3.17;;